VLG6YB LIRQ-LICC
Flight info
| Callsign | VLG6YB |
|---|---|
| Flight time | N/A |
| Altitude | 19000 |
| Route | KUGIX L995 IBRID/N0439F390 DCT AMTEL DCT SOVAN DCT GIKIN DCT RIFFI DCT ENSOT DCT VAKOR DCT PELEN DCT UXUTA DCT LIBRO |
| Aircraft | A21N/M-SDE2E3FGHIRWXY/LB1 |
Departure
| Time | 2026-04-28 17:44 |
|---|---|
| Airport | Florence Airport, Peretola (LIRQ) |
Arrival
| Time | N/A |
|---|---|
| Airport | Catania-Fontanarossa Airport (LICC) |
| Time | Latitude | Longitude | Altitude | Speed | Heading |
|---|---|---|---|---|---|
| 2026-04-28 17:09 | 43.80381 | 11.20045 | 135 ft | 0 kts | 267° |
| 2026-04-28 17:35 | 43.80382 | 11.20057 | 136 ft | 3 kts | 273° |
| 2026-04-28 17:35 | 43.80378 | 11.20081 | 136 ft | 3 kts | 311° |
| 2026-04-28 17:35 | 43.80363 | 11.20094 | 136 ft | 3 kts | 353° |
| 2026-04-28 17:36 | 43.80350 | 11.20096 | 136 ft | 0 kts | 359° |
| 2026-04-28 17:39 | 43.80375 | 11.20096 | 136 ft | 8 kts | 0° |
| 2026-04-28 17:39 | 43.80500 | 11.20024 | 136 ft | 15 kts | 314° |
| 2026-04-28 17:40 | 43.80569 | 11.19996 | 135 ft | 10 kts | 12° |
| 2026-04-28 17:40 | 43.80629 | 11.20014 | 134 ft | 16 kts | 12° |
| 2026-04-28 17:40 | 43.80761 | 11.20135 | 138 ft | 20 kts | 48° |
| 2026-04-28 17:40 | 43.80866 | 11.20297 | 136 ft | 24 kts | 48° |
| 2026-04-28 17:41 | 43.80984 | 11.20479 | 136 ft | 27 kts | 47° |
| 2026-04-28 17:41 | 43.81070 | 11.20609 | 139 ft | 28 kts | 47° |
| 2026-04-28 17:41 | 43.81202 | 11.20806 | 144 ft | 28 kts | 47° |
| 2026-04-28 17:41 | 43.81264 | 11.21019 | 151 ft | 22 kts | 96° |
| 2026-04-28 17:42 | 43.81266 | 11.21218 | 152 ft | 17 kts | 66° |
| 2026-04-28 17:42 | 43.81326 | 11.21319 | 154 ft | 13 kts | 52° |
| 2026-04-28 17:42 | 43.81393 | 11.21382 | 154 ft | 10 kts | 8° |
| 2026-04-28 17:42 | 43.81466 | 11.21359 | 152 ft | 13 kts | 345° |
| 2026-04-28 17:43 | 43.81505 | 11.21279 | 150 ft | 9 kts | 248° |
| 2026-04-28 17:43 | 43.81448 | 11.21181 | 151 ft | 29 kts | 227° |
| 2026-04-28 17:43 | 43.81124 | 11.20688 | 141 ft | 112 kts | 229° |
| 2026-04-28 17:43 | 43.80480 | 11.19699 | 569 ft | 150 kts | 229° |
| 2026-04-28 17:44 | 43.79891 | 11.18466 | 1321 ft | 158 kts | 260° |
| 2026-04-28 17:44 | 43.79959 | 11.16960 | 2287 ft | 163 kts | 277° |
| 2026-04-28 17:44 | 43.80164 | 11.15256 | 2804 ft | 195 kts | 278° |
| 2026-04-28 17:44 | 43.80384 | 11.13312 | 3489 ft | 212 kts | 277° |
| 2026-04-28 17:45 | 43.80585 | 11.11243 | 4319 ft | 221 kts | 275° |
| 2026-04-28 17:45 | 43.80770 | 11.09089 | 5327 ft | 229 kts | 273° |
| 2026-04-28 17:45 | 43.80946 | 11.06878 | 6514 ft | 232 kts | 274° |
| 2026-04-28 17:45 | 43.81120 | 11.04657 | 7684 ft | 233 kts | 275° |
| 2026-04-28 17:46 | 43.81560 | 11.02488 | 8792 ft | 238 kts | 298° |
| 2026-04-28 17:46 | 43.82710 | 11.00843 | 9859 ft | 244 kts | 332° |
| 2026-04-28 17:46 | 43.84363 | 11.00373 | 10820 ft | 249 kts | 7° |
| 2026-04-28 17:46 | 43.85925 | 11.01283 | 11789 ft | 253 kts | 41° |
| 2026-04-28 17:47 | 43.86891 | 11.03324 | 12664 ft | 261 kts | 76° |
| 2026-04-28 17:47 | 43.86852 | 11.05828 | 13572 ft | 265 kts | 111° |
| 2026-04-28 17:47 | 43.86048 | 11.08133 | 14486 ft | 267 kts | 122° |
| 2026-04-28 17:47 | 43.85414 | 11.09606 | 15081 ft | 270 kts | 123° |
| 2026-04-28 17:48 | 43.84096 | 11.12625 | 16236 ft | 278 kts | 123° |
| 2026-04-28 17:48 | 43.83098 | 11.14971 | 17074 ft | 285 kts | 122° |
| 2026-04-28 17:48 | 43.82093 | 11.17378 | 17908 ft | 292 kts | 122° |
| 2026-04-28 17:48 | 43.80917 | 11.19672 | 18574 ft | 292 kts | 140° |
| 2026-04-28 17:49 | 43.79225 | 11.21256 | 18918 ft | 304 kts | 157° |
| 2026-04-28 17:49 | 43.77239 | 11.22543 | 18973 ft | 336 kts | 160° |
| 2026-04-28 17:49 | 43.74980 | 11.23908 | 18979 ft | 369 kts | 160° |
| 2026-04-28 17:49 | 43.72560 | 11.25383 | 18997 ft | 387 kts | 159° |
| 2026-04-28 17:50 | 43.70089 | 11.26915 | 19004 ft | 390 kts | 159° |
| 2026-04-28 17:50 | 43.67606 | 11.28466 | 19010 ft | 391 kts | 159° |
| 2026-04-28 17:50 | 43.65123 | 11.30021 | 19011 ft | 391 kts | 159° |
| 2026-04-28 17:50 | 43.62648 | 11.31571 | 19014 ft | 391 kts | 159° |
| 2026-04-28 17:51 | 43.60166 | 11.33125 | 19006 ft | 392 kts | 159° |
| 2026-04-28 17:51 | 43.57713 | 11.34660 | 19014 ft | 392 kts | 159° |
| 2026-04-28 17:51 | 43.55233 | 11.36229 | 19015 ft | 392 kts | 157° |
| 2026-04-28 17:51 | 43.52792 | 11.37912 | 19013 ft | 393 kts | 155° |
| 2026-04-28 17:52 | 43.50379 | 11.39680 | 19015 ft | 393 kts | 154° |
| 2026-04-28 17:52 | 43.47984 | 11.41483 | 18999 ft | 393 kts | 154° |
| 2026-04-28 17:52 | 43.43123 | 11.45167 | 20041 ft | 401 kts | 154° |
| 2026-04-28 17:53 | 43.40677 | 11.47011 | 20971 ft | 401 kts | 154° |
| 2026-04-28 17:53 | 43.38212 | 11.48858 | 21772 ft | 405 kts | 154° |
| 2026-04-28 17:53 | 43.35721 | 11.50714 | 22545 ft | 410 kts | 155° |
| 2026-04-28 17:53 | 43.33201 | 11.52584 | 23294 ft | 414 kts | 155° |
| 2026-04-28 17:54 | 43.30649 | 11.54474 | 23934 ft | 418 kts | 155° |
| 2026-04-28 17:54 | 43.28074 | 11.56380 | 24495 ft | 423 kts | 155° |
| 2026-04-28 17:54 | 43.25500 | 11.58283 | 25072 ft | 427 kts | 155° |
| 2026-04-28 17:54 | 43.22876 | 11.60222 | 25630 ft | 430 kts | 154° |
| 2026-04-28 17:55 | 43.20231 | 11.62176 | 26170 ft | 434 kts | 154° |
| 2026-04-28 17:55 | 43.17560 | 11.64149 | 26731 ft | 438 kts | 154° |
| 2026-04-28 17:55 | 43.14871 | 11.66134 | 27240 ft | 441 kts | 154° |
| 2026-04-28 17:55 | 43.12162 | 11.68132 | 27746 ft | 445 kts | 154° |
| 2026-04-28 17:56 | 43.09421 | 11.70150 | 28218 ft | 449 kts | 154° |
| 2026-04-28 17:56 | 43.06660 | 11.72182 | 28701 ft | 452 kts | 154° |
| 2026-04-28 17:56 | 43.03879 | 11.74225 | 29168 ft | 455 kts | 154° |
| 2026-04-28 17:56 | 43.01081 | 11.76280 | 29617 ft | 458 kts | 154° |
| 2026-04-28 17:57 | 42.98266 | 11.78345 | 30065 ft | 461 kts | 154° |
| 2026-04-28 17:57 | 42.95427 | 11.80424 | 30434 ft | 464 kts | 154° |
| 2026-04-28 17:57 | 42.92571 | 11.82514 | 30818 ft | 466 kts | 154° |
| 2026-04-28 17:57 | 42.89712 | 11.84606 | 31302 ft | 466 kts | 154° |
| 2026-04-28 17:58 | 42.86857 | 11.86691 | 31796 ft | 465 kts | 154° |
| 2026-04-28 17:58 | 42.84012 | 11.88768 | 32266 ft | 464 kts | 154° |
| 2026-04-28 17:58 | 42.81199 | 11.90818 | 32708 ft | 464 kts | 154° |
| 2026-04-28 17:58 | 42.78349 | 11.92891 | 33126 ft | 464 kts | 154° |
| 2026-04-28 17:59 | 42.75499 | 11.94961 | 33547 ft | 464 kts | 154° |
| 2026-04-28 17:59 | 42.72654 | 11.97025 | 33962 ft | 463 kts | 154° |
| 2026-04-28 17:59 | 42.69814 | 11.99084 | 34340 ft | 463 kts | 154° |
| 2026-04-28 17:59 | 42.66973 | 12.01141 | 34706 ft | 462 kts | 154° |
| 2026-04-28 18:00 | 42.64134 | 12.03182 | 35050 ft | 461 kts | 156° |
| 2026-04-28 18:00 | 42.61174 | 12.04875 | 35374 ft | 458 kts | 165° |
| 2026-04-28 18:00 | 42.58135 | 12.06161 | 35687 ft | 457 kts | 167° |
| 2026-04-28 18:00 | 42.55088 | 12.07326 | 36062 ft | 455 kts | 168° |
| 2026-04-28 18:01 | 42.52024 | 12.08425 | 36399 ft | 454 kts | 168° |
| 2026-04-28 18:01 | 42.49004 | 12.09476 | 36709 ft | 454 kts | 169° |
| 2026-04-28 18:01 | 42.45946 | 12.10531 | 37011 ft | 454 kts | 169° |
| 2026-04-28 18:01 | 42.42878 | 12.11591 | 37314 ft | 454 kts | 169° |
| 2026-04-28 18:02 | 42.39824 | 12.12652 | 37630 ft | 454 kts | 169° |
| 2026-04-28 18:02 | 42.36769 | 12.13719 | 37924 ft | 453 kts | 169° |
| 2026-04-28 18:02 | 42.33712 | 12.14791 | 38247 ft | 452 kts | 169° |
| 2026-04-28 18:02 | 42.30669 | 12.15860 | 38527 ft | 452 kts | 169° |
| 2026-04-28 18:03 | 42.27626 | 12.16929 | 38782 ft | 452 kts | 169° |
| 2026-04-28 18:03 | 42.24588 | 12.17995 | 38967 ft | 452 kts | 169° |
| 2026-04-28 18:03 | 42.18486 | 12.20133 | 39042 ft | 453 kts | 169° |
| 2026-04-28 18:04 | 42.12392 | 12.22264 | 39048 ft | 452 kts | 169° |
| 2026-04-28 18:04 | 42.06299 | 12.24390 | 39046 ft | 452 kts | 169° |
| 2026-04-28 18:05 | 42.01243 | 12.26150 | 39047 ft | 452 kts | 169° |
| 2026-04-28 18:05 | 41.94126 | 12.28623 | 39035 ft | 452 kts | 169° |
| 2026-04-28 18:06 | 41.88080 | 12.30720 | 39048 ft | 451 kts | 169° |
| 2026-04-28 18:06 | 41.82011 | 12.32820 | 39048 ft | 451 kts | 169° |
| 2026-04-28 18:07 | 41.75927 | 12.34921 | 39047 ft | 450 kts | 169° |
| 2026-04-28 18:07 | 41.69855 | 12.37015 | 39046 ft | 450 kts | 169° |
| 2026-04-28 18:08 | 41.63791 | 12.39101 | 39048 ft | 450 kts | 169° |
| 2026-04-28 18:08 | 41.57728 | 12.41183 | 39048 ft | 450 kts | 169° |
| 2026-04-28 18:09 | 41.52687 | 12.42911 | 39048 ft | 450 kts | 169° |